createdAt,value
2018-06-20T00:00:00.082Z,33.50
2018-06-20T00:00:35.876Z,32.60
2018-06-20T00:01:11.035Z,33.50
2018-06-20T00:01:46.440Z,28.60
2018-06-20T00:02:21.787Z,30.70
2018-06-20T00:02:57.189Z,35.50
2018-06-20T00:03:32.212Z,34.90
2018-06-20T00:04:07.736Z,30.20
2018-06-20T00:04:43.286Z,30.80
2018-06-20T00:05:18.692Z,33.30
2018-06-20T00:05:54.355Z,29.50
2018-06-20T00:06:29.974Z,30.00
2018-06-20T00:07:05.504Z,30.10
2018-06-20T00:07:40.762Z,31.10
2018-06-20T00:08:16.285Z,29.10
2018-06-20T00:08:51.605Z,30.10
2018-06-20T00:09:27.060Z,31.20
2018-06-20T00:10:02.638Z,30.70
2018-06-20T00:10:38.124Z,29.40
2018-06-20T00:11:13.546Z,32.00
2018-06-20T00:11:48.882Z,34.20
2018-06-20T00:12:24.087Z,33.20
2018-06-20T00:12:59.514Z,32.40
2018-06-20T00:13:34.626Z,29.10
2018-06-20T00:14:10.365Z,28.50
2018-06-20T00:14:45.660Z,28.60
2018-06-20T00:15:20.748Z,31.80
2018-06-20T00:15:56.087Z,32.90
2018-06-20T00:16:31.539Z,34.80
2018-06-20T00:17:06.851Z,36.10
2018-06-20T00:17:42.225Z,35.30
2018-06-20T00:18:17.565Z,33.70
2018-06-20T00:18:52.927Z,31.90
2018-06-20T00:19:28.140Z,31.00
2018-06-20T00:20:03.975Z,30.40
2018-06-20T00:20:39.678Z,38.10
2018-06-20T00:21:15.032Z,35.90
2018-06-20T00:21:50.396Z,31.70
2018-06-20T00:22:25.703Z,28.20
2018-06-20T00:23:00.929Z,30.40
2018-06-20T00:23:36.568Z,32.10
2018-06-20T00:24:11.978Z,29.30
2018-06-20T00:24:47.296Z,26.80
2018-06-20T00:25:22.799Z,33.60
2018-06-20T00:25:58.367Z,34.70
2018-06-20T00:26:33.650Z,31.30
2018-06-20T00:27:09.126Z,30.40
2018-06-20T00:27:44.963Z,28.50
2018-06-20T00:28:19.883Z,26.40
2018-06-20T00:28:55.099Z,30.30
2018-06-20T00:29:30.547Z,32.40
2018-06-20T00:30:06.153Z,33.50
2018-06-20T00:30:41.491Z,30.90
2018-06-20T00:31:17.314Z,29.70
2018-06-20T00:31:52.762Z,29.20
2018-06-20T00:32:28.581Z,30.40
2018-06-20T00:33:03.945Z,34.20
2018-06-20T00:33:39.747Z,34.80
2018-06-20T00:34:14.992Z,28.30
2018-06-20T00:34:52.288Z,31.20
2018-06-20T00:35:27.727Z,29.30
2018-06-20T00:36:04.023Z,29.10
2018-06-20T00:36:43.821Z,28.90
2018-06-20T00:37:19.463Z,29.30
2018-06-20T00:37:55.324Z,26.50
2018-06-20T00:38:30.719Z,32.00
2018-06-20T00:39:06.074Z,33.90
2018-06-20T00:39:41.311Z,31.50
2018-06-20T00:40:16.631Z,28.30
2018-06-20T00:40:52.140Z,28.90
2018-06-20T00:41:27.461Z,31.40
2018-06-20T00:42:02.552Z,26.60
2018-06-20T00:42:38.541Z,30.60
2018-06-20T00:43:13.867Z,29.80
2018-06-20T00:43:49.526Z,24.40
2018-06-20T00:44:24.732Z,27.00
2018-06-20T00:45:00.170Z,30.20
2018-06-20T00:45:35.981Z,29.80
2018-06-20T00:46:11.543Z,33.40
2018-06-20T00:46:46.673Z,33.40
2018-06-20T00:47:22.141Z,28.80
2018-06-20T00:47:57.758Z,26.10
2018-06-20T00:48:33.109Z,28.50
2018-06-20T00:49:08.619Z,27.80
2018-06-20T00:49:44.068Z,30.50
2018-06-20T00:50:19.800Z,30.90
2018-06-20T00:50:55.514Z,31.20
2018-06-20T00:51:33.119Z,30.10
2018-06-20T00:52:08.503Z,28.40
2018-06-20T00:52:44.098Z,28.20
2018-06-20T00:53:19.325Z,33.50
2018-06-20T00:53:55.017Z,31.10
2018-06-20T00:54:30.165Z,29.90
2018-06-20T00:55:05.578Z,29.00
2018-06-20T00:55:41.013Z,34.10
2018-06-20T00:56:16.461Z,36.60
2018-06-20T00:56:51.813Z,31.60
2018-06-20T00:57:27.062Z,31.90
2018-06-20T00:58:02.700Z,32.50
2018-06-20T00:58:38.028Z,28.80
2018-06-20T00:59:13.473Z,30.90
2018-06-20T00:59:48.975Z,30.10
2018-06-20T01:00:24.303Z,26.60
2018-06-20T01:01:00.311Z,32.30
2018-06-20T01:01:35.738Z,33.50
2018-06-20T01:02:11.150Z,31.20
2018-06-20T01:02:46.619Z,28.50
2018-06-20T01:03:22.039Z,33.20
2018-06-20T01:03:57.603Z,33.60
2018-06-20T01:04:32.830Z,31.80
2018-06-20T01:05:08.088Z,30.50
2018-06-20T01:05:43.501Z,31.10
2018-06-20T01:06:18.938Z,31.40
2018-06-20T01:06:54.458Z,30.40
2018-06-20T01:07:30.018Z,32.10
2018-06-20T01:08:05.217Z,29.60
2018-06-20T01:08:40.434Z,28.60
2018-06-20T01:09:15.840Z,32.20
2018-06-20T01:09:51.071Z,36.00
2018-06-20T01:10:26.383Z,35.60
2018-06-20T01:11:01.759Z,37.80
2018-06-20T01:11:37.429Z,32.90
2018-06-20T01:12:12.920Z,35.30
2018-06-20T01:12:48.231Z,36.70
2018-06-20T01:13:23.584Z,37.50
2018-06-20T01:13:59.805Z,37.20
2018-06-20T01:14:34.966Z,37.10
2018-06-20T01:15:10.761Z,42.20
2018-06-20T01:15:45.980Z,36.50
2018-06-20T01:16:21.410Z,30.30
2018-06-20T01:16:56.566Z,29.90
2018-06-20T01:17:32.309Z,38.20
2018-06-20T01:18:07.556Z,35.20
2018-06-20T01:18:42.752Z,31.90
2018-06-20T01:19:17.891Z,34.30
2018-06-20T01:19:53.696Z,36.50
2018-06-20T01:20:29.628Z,36.10
2018-06-20T01:21:05.019Z,37.00
2018-06-20T01:21:40.551Z,35.20
2018-06-20T01:22:16.160Z,36.40
2018-06-20T01:22:51.296Z,35.50
2018-06-20T01:23:26.319Z,31.70
2018-06-20T01:24:01.771Z,31.80
2018-06-20T01:24:37.080Z,31.90
2018-06-20T01:25:12.841Z,35.80
2018-06-20T01:25:47.949Z,36.70
2018-06-20T01:26:23.304Z,34.40
2018-06-20T01:26:58.642Z,36.20
2018-06-20T01:27:34.041Z,33.20
2018-06-20T01:28:09.572Z,34.70
2018-06-20T01:28:44.749Z,34.60
2018-06-20T01:29:20.161Z,32.00
2018-06-20T01:29:55.589Z,31.50
2018-06-20T01:30:30.921Z,33.20
2018-06-20T01:31:06.252Z,35.60
2018-06-20T01:31:41.779Z,35.30
2018-06-20T01:32:17.052Z,33.00
2018-06-20T01:32:52.180Z,37.20
2018-06-20T01:33:27.643Z,36.10
2018-06-20T01:34:02.980Z,37.70
2018-06-20T01:34:38.616Z,33.50
2018-06-20T01:35:14.153Z,31.40
2018-06-20T01:35:50.587Z,34.30
2018-06-20T01:36:26.033Z,36.00
2018-06-20T01:37:01.267Z,36.00
2018-06-20T01:37:36.412Z,39.30
2018-06-20T01:38:11.692Z,43.40
2018-06-20T01:38:47.087Z,43.80
2018-06-20T01:39:22.727Z,46.30
2018-06-20T01:39:58.336Z,41.30
2018-06-20T01:40:33.788Z,38.90
2018-06-20T01:41:09.312Z,40.80
2018-06-20T01:41:44.992Z,39.90
2018-06-20T01:42:20.414Z,38.40
2018-06-20T01:42:55.661Z,33.70
2018-06-20T01:43:30.951Z,42.00
2018-06-20T01:44:06.481Z,46.30
2018-06-20T01:44:41.581Z,39.40
2018-06-20T01:45:16.725Z,43.60
2018-06-20T01:45:52.053Z,43.00
2018-06-20T01:46:27.582Z,39.80
2018-06-20T01:47:02.895Z,37.90
2018-06-20T01:47:38.756Z,36.20
2018-06-20T01:48:14.083Z,41.60
2018-06-20T01:48:49.536Z,43.20
2018-06-20T01:49:25.148Z,38.30
2018-06-20T01:50:00.795Z,41.00
2018-06-20T01:50:36.391Z,45.50
2018-06-20T01:51:11.751Z,42.20
2018-06-20T01:51:47.224Z,42.50
2018-06-20T01:52:22.700Z,39.30
2018-06-20T01:52:57.901Z,38.50
2018-06-20T01:53:32.931Z,43.30
2018-06-20T01:54:08.184Z,48.60
2018-06-20T01:54:43.917Z,46.20
2018-06-20T01:55:19.326Z,44.20
2018-06-20T01:55:54.888Z,45.90
2018-06-20T01:56:30.015Z,46.50
2018-06-20T01:57:05.571Z,46.20
2018-06-20T01:57:40.910Z,42.80
2018-06-20T01:58:16.025Z,44.90
2018-06-20T01:58:54.039Z,45.20
2018-06-20T01:59:29.279Z,42.00
2018-06-20T02:00:04.587Z,44.40
2018-06-20T02:00:40.503Z,49.10
2018-06-20T02:01:16.133Z,45.00
2018-06-20T02:01:51.582Z,43.10
2018-06-20T02:02:26.907Z,41.20
2018-06-20T02:03:02.255Z,47.40
2018-06-20T02:03:37.847Z,47.20
2018-06-20T02:04:13.192Z,46.90
2018-06-20T02:04:48.631Z,47.70
2018-06-20T02:05:24.053Z,45.20
2018-06-20T02:05:59.293Z,45.20
2018-06-20T02:06:34.546Z,45.20
2018-06-20T02:07:09.976Z,45.10
2018-06-20T02:07:45.404Z,45.20
2018-06-20T02:08:20.821Z,43.70
2018-06-20T02:08:57.970Z,46.60
2018-06-20T02:09:33.393Z,47.80
2018-06-20T02:10:08.664Z,45.40
2018-06-20T02:10:43.900Z,48.40
2018-06-20T02:11:19.361Z,49.10
2018-06-20T02:11:54.669Z,47.60
2018-06-20T02:12:30.143Z,49.50
2018-06-20T02:13:05.543Z,43.70
2018-06-20T02:13:41.107Z,42.70
2018-06-20T02:14:16.317Z,47.40
2018-06-20T02:14:51.609Z,46.20
2018-06-20T02:15:26.763Z,46.00
2018-06-20T02:16:02.388Z,45.90
2018-06-20T02:16:38.003Z,45.20
2018-06-20T02:17:13.480Z,45.60
2018-06-20T02:17:48.883Z,49.10
2018-06-20T02:18:24.532Z,49.80
2018-06-20T02:18:59.865Z,49.30
2018-06-20T02:19:35.300Z,49.50
2018-06-20T02:20:11.211Z,50.70
2018-06-20T02:20:46.743Z,48.70
2018-06-20T02:21:22.129Z,49.60
2018-06-20T02:21:57.356Z,45.10
2018-06-20T02:22:32.677Z,50.80
2018-06-20T02:23:08.137Z,47.90
2018-06-20T02:23:43.328Z,44.90
2018-06-20T02:24:18.881Z,43.70
2018-06-20T02:24:53.983Z,45.70
2018-06-20T02:25:29.195Z,47.80
2018-06-20T02:26:04.422Z,49.90
2018-06-20T02:26:39.766Z,47.60
2018-06-20T02:27:15.398Z,42.40
2018-06-20T02:27:50.879Z,42.80
2018-06-20T02:28:26.613Z,47.00
2018-06-20T02:29:02.073Z,48.40
2018-06-20T02:29:37.285Z,44.90
2018-06-20T02:30:12.495Z,43.70
2018-06-20T02:30:48.101Z,42.40
2018-06-20T02:31:23.581Z,45.50
2018-06-20T02:31:59.128Z,46.00
2018-06-20T02:32:34.596Z,48.20
2018-06-20T02:33:10.352Z,49.90
2018-06-20T02:33:45.898Z,49.20
2018-06-20T02:34:21.208Z,51.90
2018-06-20T02:34:56.463Z,53.30
2018-06-20T02:35:31.691Z,55.30
2018-06-20T02:36:07.134Z,53.30
2018-06-20T02:36:42.512Z,48.00
2018-06-20T02:37:17.902Z,45.80
2018-06-20T02:37:53.216Z,52.40
2018-06-20T02:38:28.753Z,50.80
2018-06-20T02:39:04.059Z,46.70
2018-06-20T02:39:39.566Z,46.30
2018-06-20T02:40:14.763Z,51.80
2018-06-20T02:40:50.382Z,48.90
2018-06-20T02:41:25.687Z,46.10
2018-06-20T02:42:01.034Z,48.00
2018-06-20T02:42:36.470Z,50.30
2018-06-20T02:43:11.704Z,51.40
2018-06-20T02:43:46.913Z,49.00
2018-06-20T02:44:22.353Z,47.30
2018-06-20T02:44:57.574Z,50.90
2018-06-20T02:45:32.887Z,45.20
2018-06-20T02:46:08.312Z,44.10
2018-06-20T02:46:43.747Z,51.50
2018-06-20T02:47:19.054Z,55.00
2018-06-20T02:47:54.480Z,54.90
2018-06-20T02:48:30.072Z,46.20
2018-06-20T02:49:05.594Z,45.90
2018-06-20T02:49:41.196Z,51.80
2018-06-20T02:50:16.638Z,50.60
2018-06-20T02:50:52.361Z,48.80
2018-06-20T02:51:27.906Z,58.10
2018-06-20T02:52:03.425Z,59.70
2018-06-20T02:52:39.007Z,57.60
2018-06-20T02:53:14.200Z,56.60
2018-06-20T02:53:49.470Z,51.30
2018-06-20T02:54:24.966Z,54.60
2018-06-20T02:55:00.299Z,54.10
2018-06-20T02:55:35.952Z,54.60
2018-06-20T02:56:11.387Z,50.40
2018-06-20T02:56:46.600Z,58.00
2018-06-20T02:57:22.195Z,56.40
2018-06-20T02:57:57.376Z,54.60
2018-06-20T02:58:32.804Z,56.60
2018-06-20T02:59:08.029Z,61.80
2018-06-20T02:59:44.552Z,53.20
2018-06-20T03:00:20.075Z,50.60
2018-06-20T03:00:55.807Z,52.50
2018-06-20T03:01:31.045Z,58.60
2018-06-20T03:02:06.419Z,55.00
2018-06-20T03:02:44.278Z,49.50
2018-06-20T03:03:19.503Z,50.90
2018-06-20T03:03:55.120Z,55.40
2018-06-20T03:04:30.782Z,56.20
2018-06-20T03:05:06.086Z,54.90
2018-06-20T03:05:41.408Z,50.90
2018-06-20T03:06:16.628Z,50.10
2018-06-20T03:06:51.864Z,51.30
2018-06-20T03:07:27.126Z,57.10
2018-06-20T03:08:02.272Z,49.80
2018-06-20T03:08:38.513Z,48.30
2018-06-20T03:09:14.052Z,46.90
2018-06-20T03:09:49.374Z,56.80
2018-06-20T03:10:24.708Z,61.90
2018-06-20T03:11:00.153Z,56.80
2018-06-20T03:11:35.487Z,60.00
2018-06-20T03:12:10.943Z,57.20
2018-06-20T03:12:46.291Z,63.30
2018-06-20T03:13:21.902Z,60.90
2018-06-20T03:13:57.493Z,55.90
2018-06-20T03:14:32.582Z,52.50
2018-06-20T03:15:08.031Z,52.30
2018-06-20T03:15:43.459Z,55.10
2018-06-20T03:16:18.887Z,55.80
2018-06-20T03:16:54.538Z,52.00
2018-06-20T03:17:30.008Z,54.40
2018-06-20T03:18:05.523Z,54.10
2018-06-20T03:18:40.759Z,51.80
2018-06-20T03:19:15.989Z,46.70
2018-06-20T03:19:51.439Z,55.00
2018-06-20T03:20:27.049Z,58.70
2018-06-20T03:21:02.424Z,55.50
2018-06-20T03:21:37.641Z,52.80
2018-06-20T03:22:13.110Z,53.20
2018-06-20T03:22:48.525Z,50.30
2018-06-20T03:23:24.001Z,53.20
2018-06-20T03:23:59.130Z,57.30
2018-06-20T03:24:35.210Z,57.30
2018-06-20T03:25:10.326Z,55.20
2018-06-20T03:25:45.678Z,51.30
2018-06-20T03:26:21.715Z,48.50
2018-06-20T03:26:56.937Z,53.20
2018-06-20T03:27:32.537Z,54.10
2018-06-20T03:28:08.061Z,52.20
2018-06-20T03:28:43.298Z,50.30
2018-06-20T03:29:18.664Z,49.90
2018-06-20T03:29:54.111Z,50.70
2018-06-20T03:30:29.933Z,61.10
2018-06-20T03:31:05.433Z,58.40
2018-06-20T03:31:41.277Z,54.90
2018-06-20T03:32:16.731Z,57.50
2018-06-20T03:32:52.272Z,57.30
2018-06-20T03:33:27.393Z,54.60
2018-06-20T03:34:02.658Z,54.90
2018-06-20T03:34:37.973Z,59.20
2018-06-20T03:35:13.237Z,59.30
2018-06-20T03:35:48.653Z,54.80
2018-06-20T03:36:24.480Z,56.10
2018-06-20T03:37:00.498Z,59.30
2018-06-20T03:37:36.182Z,61.70
2018-06-20T03:38:11.614Z,63.10
2018-06-20T03:38:47.036Z,63.90
2018-06-20T03:39:22.273Z,56.50
2018-06-20T03:39:57.648Z,61.60
2018-06-20T03:40:33.282Z,67.90
2018-06-20T03:41:08.529Z,66.00
2018-06-20T03:41:43.941Z,70.20
2018-06-20T03:42:19.648Z,65.80
2018-06-20T03:42:55.146Z,67.20
2018-06-20T03:43:30.722Z,67.70
2018-06-20T03:44:06.139Z,66.50
2018-06-20T03:44:41.768Z,66.00
2018-06-20T03:45:17.375Z,59.50
2018-06-20T03:45:52.644Z,64.50
2018-06-20T03:46:28.358Z,66.60
2018-06-20T03:47:03.528Z,68.80
2018-06-20T03:47:38.962Z,67.50
2018-06-20T03:48:14.416Z,64.20
2018-06-20T03:48:49.736Z,70.90
2018-06-20T03:49:24.872Z,71.20
2018-06-20T03:50:00.526Z,66.70
2018-06-20T03:50:35.788Z,69.30
2018-06-20T03:51:11.108Z,71.40
2018-06-20T03:51:46.457Z,69.40
2018-06-20T03:52:21.808Z,66.80
2018-06-20T03:52:57.697Z,65.90
2018-06-20T03:53:33.413Z,68.30
2018-06-20T03:54:08.840Z,72.80
2018-06-20T03:54:44.341Z,76.60
2018-06-20T03:55:19.989Z,74.30
2018-06-20T03:55:55.410Z,70.00
2018-06-20T03:56:30.858Z,70.60
2018-06-20T03:57:06.290Z,63.40
2018-06-20T03:57:41.545Z,67.30
2018-06-20T03:58:17.278Z,66.10
2018-06-20T03:58:52.531Z,65.90
2018-06-20T03:59:27.873Z,67.50
2018-06-20T04:00:03.107Z,69.00
2018-06-20T04:00:39.249Z,69.50
2018-06-20T04:01:16.086Z,66.90
2018-06-20T04:01:51.694Z,67.20
2018-06-20T04:02:27.113Z,67.80
2018-06-20T04:03:02.317Z,71.20
2018-06-20T04:03:37.991Z,66.00
2018-06-20T04:04:13.177Z,64.60
2018-06-20T04:04:51.217Z,61.80
2018-06-20T04:05:26.570Z,63.90
2018-06-20T04:06:02.154Z,66.00
2018-06-20T04:06:37.760Z,67.20
2018-06-20T04:07:13.128Z,62.60
2018-06-20T04:07:48.451Z,57.00
2018-06-20T04:08:24.430Z,53.70
2018-06-20T04:08:59.630Z,54.80
2018-06-20T04:09:35.129Z,59.60
2018-06-20T04:10:10.698Z,61.30
2018-06-20T04:10:46.432Z,53.30
2018-06-20T04:11:21.966Z,55.60
2018-06-20T04:11:57.420Z,57.50
2018-06-20T04:12:32.752Z,57.90
2018-06-20T04:13:08.021Z,53.00
2018-06-20T04:13:43.428Z,59.10
2018-06-20T04:14:19.070Z,60.40
2018-06-20T04:14:54.698Z,59.10
2018-06-20T04:15:29.923Z,60.30
2018-06-20T04:16:05.513Z,53.60
2018-06-20T04:16:42.378Z,54.40
2018-06-20T04:17:17.905Z,59.10
2018-06-20T04:17:53.130Z,62.40
2018-06-20T04:18:28.530Z,63.90
2018-06-20T04:19:03.993Z,61.90
2018-06-20T04:19:39.322Z,55.90
2018-06-20T04:20:14.760Z,56.60
2018-06-20T04:20:56.386Z,60.40
2018-06-20T04:21:31.622Z,57.70
2018-06-20T04:22:07.252Z,57.60
2018-06-20T04:22:42.529Z,60.10
2018-06-20T04:23:18.066Z,62.20
2018-06-20T04:23:53.309Z,64.10
2018-06-20T04:24:28.545Z,62.60
2018-06-20T04:25:03.873Z,58.90
2018-06-20T04:25:39.866Z,56.90
2018-06-20T04:26:15.387Z,54.90
2018-06-20T04:26:50.826Z,57.30
2018-06-20T04:27:26.506Z,56.80
2018-06-20T04:28:02.491Z,52.30
2018-06-20T04:28:37.945Z,51.20
2018-06-20T04:29:13.396Z,57.10
2018-06-20T04:29:49.070Z,64.60
2018-06-20T04:30:24.711Z,60.50
2018-06-20T04:31:00.603Z,57.40
2018-06-20T04:31:36.067Z,57.50
2018-06-20T04:32:11.260Z,58.00
2018-06-20T04:32:46.492Z,60.20
2018-06-20T04:33:21.655Z,57.80
2018-06-20T04:33:57.191Z,58.30
2018-06-20T04:34:33.117Z,60.70
2018-06-20T04:35:08.303Z,62.80
2018-06-20T04:35:44.772Z,63.00
2018-06-20T04:36:20.243Z,59.50
2018-06-20T04:36:56.446Z,58.20
2018-06-20T04:37:31.800Z,59.60
2018-06-20T04:38:07.281Z,63.50
2018-06-20T04:38:44.216Z,62.80
2018-06-20T04:39:19.872Z,61.40
2018-06-20T04:39:55.110Z,61.70
2018-06-20T04:40:30.469Z,62.30
2018-06-20T04:41:05.722Z,58.50
2018-06-20T04:41:41.294Z,56.30
2018-06-20T04:42:16.536Z,61.70
2018-06-20T04:42:51.796Z,61.70
2018-06-20T04:43:27.149Z,57.10
2018-06-20T04:44:02.531Z,58.10
2018-06-20T04:44:38.072Z,60.60
2018-06-20T04:45:13.316Z,66.50
2018-06-20T04:45:50.542Z,69.30
2018-06-20T04:46:26.201Z,62.50
2018-06-20T04:47:01.701Z,59.50
2018-06-20T04:47:38.317Z,72.20
2018-06-20T04:48:16.713Z,73.00
2018-06-20T04:48:52.363Z,72.20
2018-06-20T04:49:27.632Z,67.20
2018-06-20T04:50:02.927Z,61.00
2018-06-20T04:50:38.367Z,67.00
2018-06-20T04:51:16.636Z,68.50
2018-06-20T04:51:51.891Z,64.40
2018-06-20T04:52:29.594Z,71.40
2018-06-20T04:53:05.050Z,70.90
2018-06-20T04:53:40.423Z,64.10
2018-06-20T04:54:16.067Z,65.00
2018-06-20T04:54:51.939Z,72.50
2018-06-20T04:55:27.287Z,71.00
2018-06-20T04:56:02.410Z,75.20
2018-06-20T04:56:38.030Z,76.20
2018-06-20T04:57:13.414Z,72.70
2018-06-20T04:57:49.631Z,75.90
2018-06-20T04:58:25.333Z,71.30
2018-06-20T04:59:00.660Z,67.40
2018-06-20T04:59:36.248Z,67.30
2018-06-20T05:00:11.571Z,62.80
2018-06-20T05:00:50.331Z,62.90
2018-06-20T05:01:25.919Z,66.40
2018-06-20T05:02:01.679Z,68.30
2018-06-20T05:02:36.857Z,71.90
2018-06-20T05:03:11.930Z,72.10
2018-06-20T05:03:48.572Z,72.30
2018-06-20T05:04:23.927Z,66.30
2018-06-20T05:04:59.051Z,64.70
2018-06-20T05:05:34.541Z,64.60
2018-06-20T05:06:11.490Z,62.20
2018-06-20T05:06:46.648Z,65.20
2018-06-20T05:07:22.142Z,65.70
2018-06-20T05:07:57.305Z,67.80
2018-06-20T05:08:33.203Z,64.00
2018-06-20T05:09:09.012Z,71.60
2018-06-20T05:09:45.952Z,68.00
2018-06-20T05:10:21.512Z,63.60
2018-06-20T05:10:58.567Z,68.60
2018-06-20T05:11:36.232Z,66.90
2018-06-20T05:12:11.685Z,65.70
2018-06-20T05:12:49.261Z,62.70
2018-06-20T05:13:24.495Z,60.60
2018-06-20T05:14:00.052Z,61.20
2018-06-20T05:14:35.533Z,66.40
2018-06-20T05:15:10.793Z,61.70
2018-06-20T05:15:46.429Z,57.60
2018-06-20T05:16:22.176Z,58.80
2018-06-20T05:16:58.225Z,64.90
2018-06-20T05:17:34.033Z,66.50
2018-06-20T05:18:09.362Z,64.20
2018-06-20T05:18:45.726Z,60.50
2018-06-20T05:19:22.768Z,56.60
2018-06-20T05:19:58.242Z,56.20
2018-06-20T05:20:34.096Z,58.50
2018-06-20T05:21:09.654Z,58.90
2018-06-20T05:21:45.257Z,59.10
2018-06-20T05:22:20.668Z,59.60
2018-06-20T05:22:56.515Z,57.50
2018-06-20T05:23:32.178Z,56.70
2018-06-20T05:24:07.830Z,52.60
2018-06-20T05:24:43.608Z,55.40
2018-06-20T05:25:19.460Z,61.30
2018-06-20T05:25:54.626Z,58.50
2018-06-20T05:26:30.401Z,53.10
2018-06-20T05:27:05.838Z,52.30
2018-06-20T05:27:41.384Z,49.50
2018-06-20T05:28:16.746Z,49.00
2018-06-20T05:28:52.215Z,53.30
2018-06-20T05:29:27.556Z,53.30
2018-06-20T05:30:02.905Z,50.30
2018-06-20T05:30:38.572Z,52.20
2018-06-20T05:31:15.230Z,47.90
2018-06-20T05:31:50.598Z,48.90
2018-06-20T05:32:26.281Z,47.10
2018-06-20T05:33:02.117Z,47.60
2018-06-20T05:33:37.693Z,49.00
2018-06-20T05:34:13.066Z,49.70
2018-06-20T05:37:27.573Z,48.40
2018-06-20T05:38:02.901Z,46.30
2018-06-20T05:38:38.651Z,45.10
2018-06-20T05:39:14.127Z,45.20
2018-06-20T05:39:49.425Z,51.30
2018-06-20T05:40:24.664Z,53.10
2018-06-20T05:41:02.704Z,46.40
2018-06-20T05:41:38.486Z,46.20
2018-06-20T05:42:13.808Z,45.50
2018-06-20T05:42:49.259Z,44.90
2018-06-20T05:43:24.776Z,44.40
2018-06-20T05:44:00.139Z,43.80
2018-06-20T05:44:38.476Z,47.00
2018-06-20T05:45:14.166Z,45.90
2018-06-20T05:45:52.211Z,44.50
2018-06-20T05:46:27.860Z,41.40
2018-06-20T05:47:03.013Z,45.40
2018-06-20T05:47:40.278Z,43.80
2018-06-20T05:48:16.409Z,42.90
2018-06-20T05:48:51.763Z,47.80
2018-06-20T05:49:27.503Z,49.20
2018-06-20T05:50:03.176Z,48.20
2018-06-20T05:50:38.605Z,46.20
2018-06-20T05:51:13.871Z,44.00
2018-06-20T05:51:49.183Z,40.50
2018-06-20T05:52:24.652Z,42.60
2018-06-20T05:53:00.002Z,42.60
2018-06-20T05:53:35.245Z,41.10
2018-06-20T05:54:10.675Z,44.40
2018-06-20T05:54:45.924Z,42.50
2018-06-20T05:55:21.072Z,46.30
2018-06-20T05:55:56.417Z,44.80
2018-06-20T05:56:32.047Z,41.00
2018-06-20T05:57:07.404Z,40.80
2018-06-20T05:57:42.655Z,40.90
2018-06-20T05:58:18.225Z,43.00
2018-06-20T05:58:55.471Z,41.30
2018-06-20T05:59:30.713Z,39.60
2018-06-20T06:00:06.335Z,42.00
2018-06-20T06:00:41.918Z,40.10
2018-06-20T06:01:17.172Z,40.60
2018-06-20T06:01:52.643Z,37.00
2018-06-20T06:02:27.896Z,40.10
2018-06-20T06:03:03.655Z,38.00
2018-06-20T06:03:39.291Z,38.50
2018-06-20T06:04:14.651Z,40.50
2018-06-20T06:04:50.169Z,40.30
2018-06-20T06:05:25.557Z,38.00
2018-06-20T06:06:00.985Z,38.40
2018-06-20T06:06:36.436Z,43.20
2018-06-20T06:07:11.872Z,41.10
2018-06-20T06:07:47.239Z,36.10
2018-06-20T06:08:23.086Z,39.70
2018-06-20T06:08:58.440Z,39.40
2018-06-20T06:09:33.761Z,39.40
2018-06-20T06:10:10.212Z,38.20
2018-06-20T06:10:45.538Z,37.30
2018-06-20T06:11:21.688Z,36.50
2018-06-20T06:11:56.905Z,32.10
2018-06-20T06:12:32.141Z,38.10
2018-06-20T06:13:07.388Z,36.50
2018-06-20T06:13:42.736Z,35.30
2018-06-20T06:14:18.272Z,35.90
2018-06-20T06:14:55.114Z,33.40
2018-06-20T06:15:30.738Z,34.80
2018-06-20T06:16:06.200Z,34.30
2018-06-20T06:16:41.729Z,33.40
2018-06-20T06:17:17.222Z,36.90
2018-06-20T06:17:52.648Z,36.50
2018-06-20T06:18:28.222Z,36.20
2018-06-20T06:19:03.788Z,36.80
2018-06-20T06:19:39.441Z,39.00
2018-06-20T06:20:14.567Z,39.00
2018-06-20T06:20:52.126Z,34.30
2018-06-20T06:21:27.547Z,34.10
2018-06-20T06:22:02.996Z,38.60
2018-06-20T06:22:38.752Z,40.30
2018-06-20T06:23:14.619Z,37.20
2018-06-20T06:23:49.840Z,37.80
2018-06-20T06:24:25.197Z,41.10
2018-06-20T06:25:00.873Z,39.20
2018-06-20T06:25:36.663Z,37.30
2018-06-20T06:26:11.897Z,36.10
2018-06-20T06:26:47.151Z,38.20
2018-06-20T06:27:22.797Z,40.50
2018-06-20T06:27:58.382Z,39.90
2018-06-20T06:28:33.546Z,34.90
2018-06-20T06:29:09.034Z,35.60
2018-06-20T06:29:44.354Z,36.90
2018-06-20T06:30:20.018Z,33.90
2018-06-20T06:30:55.446Z,36.00
2018-06-20T06:31:30.789Z,34.00
2018-06-20T06:32:06.431Z,32.80
2018-06-20T06:32:42.350Z,37.10
2018-06-20T06:33:17.773Z,39.60
2018-06-20T06:33:53.155Z,37.50
2018-06-20T06:34:28.683Z,37.30
2018-06-20T06:35:04.242Z,35.70
2018-06-20T06:35:39.601Z,35.40
2018-06-20T06:36:14.879Z,36.40
2018-06-20T06:36:50.336Z,36.60
2018-06-20T06:37:25.908Z,31.00
2018-06-20T06:38:01.638Z,29.40
2018-06-20T06:38:37.243Z,35.50
2018-06-20T06:39:12.774Z,37.60
2018-06-20T06:39:48.250Z,36.30
2018-06-20T06:40:23.693Z,40.20
2018-06-20T06:40:59.921Z,34.70
2018-06-20T06:41:35.053Z,34.00
2018-06-20T06:42:10.867Z,34.40
2018-06-20T06:42:46.094Z,35.60
2018-06-20T06:43:21.432Z,33.50
2018-06-20T06:43:56.891Z,31.90
2018-06-20T06:44:32.208Z,31.60
2018-06-20T06:45:07.481Z,32.20
2018-06-20T06:45:43.029Z,35.50
2018-06-20T06:46:18.350Z,34.40
2018-06-20T06:46:56.910Z,33.90
2018-06-20T06:47:32.505Z,34.00
2018-06-20T06:48:08.302Z,35.80
2018-06-20T06:48:43.915Z,33.20
2018-06-20T06:49:19.155Z,30.00
2018-06-20T06:49:54.830Z,29.70
2018-06-20T06:50:30.359Z,32.00
2018-06-20T06:51:05.781Z,30.90
2018-06-20T06:51:41.046Z,31.10
2018-06-20T06:52:16.495Z,29.40
2018-06-20T06:52:51.846Z,28.40
2018-06-20T06:53:27.863Z,30.20
2018-06-20T06:54:03.407Z,29.00
2018-06-20T06:54:38.817Z,28.70
2018-06-20T06:55:14.099Z,29.10
2018-06-20T06:55:49.814Z,28.60
2018-06-20T06:56:25.384Z,29.90
2018-06-20T06:57:00.713Z,33.70
2018-06-20T06:57:36.674Z,31.60
2018-06-20T06:58:12.090Z,30.80
2018-06-20T06:58:47.537Z,31.10
2018-06-20T06:59:22.768Z,33.90
2018-06-20T06:59:58.212Z,32.20
2018-06-20T07:00:33.433Z,32.20
2018-06-20T07:01:08.944Z,31.10
2018-06-20T07:01:44.469Z,31.00
2018-06-20T07:02:19.723Z,28.00
2018-06-20T07:02:55.025Z,30.10
2018-06-20T07:03:30.348Z,29.70
2018-06-20T07:04:05.472Z,30.00
2018-06-20T07:04:41.134Z,31.90
2018-06-20T07:05:16.379Z,31.50
2018-06-20T07:05:54.559Z,29.30
2018-06-20T07:06:30.127Z,31.70
2018-06-20T07:07:05.779Z,29.20
2018-06-20T07:07:41.108Z,28.90
2018-06-20T07:08:16.487Z,28.80
2018-06-20T07:08:51.780Z,28.50
2018-06-20T07:09:27.014Z,29.50
2018-06-20T07:10:02.317Z,26.70
2018-06-20T07:10:37.647Z,27.00
2018-06-20T07:11:12.968Z,29.80
2018-06-20T07:11:48.402Z,29.00
2018-06-20T07:12:23.782Z,28.70
2018-06-20T07:12:59.039Z,26.20
2018-06-20T07:13:34.470Z,25.40
2018-06-20T07:14:10.016Z,27.50
2018-06-20T07:14:45.328Z,30.30
2018-06-20T07:15:21.894Z,29.30
2018-06-20T07:15:57.212Z,29.20
2018-06-20T07:16:32.726Z,31.50
2018-06-20T07:17:07.815Z,31.30
2018-06-20T07:17:43.063Z,27.90
2018-06-20T07:18:18.363Z,28.70
2018-06-20T07:18:53.700Z,29.60
2018-06-20T07:19:29.024Z,24.80
2018-06-20T07:20:04.264Z,27.30
2018-06-20T07:20:41.986Z,30.20
2018-06-20T07:21:17.349Z,31.40
2018-06-20T07:21:52.871Z,29.60
2018-06-20T07:22:28.325Z,26.90
2018-06-20T07:23:03.732Z,28.80
2018-06-20T07:23:39.199Z,29.00
2018-06-20T07:24:14.602Z,27.70
2018-06-20T07:24:49.841Z,27.10
2018-06-20T07:25:25.255Z,25.80
2018-06-20T07:26:00.911Z,24.60
2018-06-20T07:26:36.540Z,26.40
2018-06-20T07:27:11.717Z,29.80
2018-06-20T07:27:47.028Z,29.30
2018-06-20T07:28:22.184Z,26.00
2018-06-20T07:28:57.582Z,27.20
2018-06-20T07:29:33.040Z,26.20
2018-06-20T07:30:08.491Z,24.00
2018-06-20T07:30:45.896Z,29.10
2018-06-20T07:31:21.506Z,26.30
2018-06-20T07:31:57.049Z,21.50
2018-06-20T07:32:32.803Z,24.30
2018-06-20T07:33:08.151Z,25.20
2018-06-20T07:33:43.859Z,24.50
2018-06-20T07:34:19.477Z,23.50
2018-06-20T07:34:54.966Z,24.40
2018-06-20T07:35:30.179Z,23.70
2018-06-20T07:36:05.741Z,24.30
2018-06-20T07:36:40.902Z,25.90
2018-06-20T07:37:16.250Z,25.40
2018-06-20T07:37:51.476Z,24.00
2018-06-20T07:38:26.902Z,23.10
2018-06-20T07:39:02.333Z,23.50
2018-06-20T07:39:37.648Z,24.00
2018-06-20T07:40:12.894Z,25.80